sensor_id;sensor_type;location;lat;lon;timestamp;P1;durP1;ratioP1;P2;durP2;ratioP2
71238;SDS011;61342;51.442;7.370;2022-08-23T00:01:15;5.25;;;3.55;;
71238;SDS011;61342;51.442;7.370;2022-08-23T00:02:40;4.70;;;3.83;;
71238;SDS011;61342;51.442;7.370;2022-08-23T00:04:11;6.93;;;3.90;;
71238;SDS011;61342;51.442;7.370;2022-08-23T00:05:28;7.05;;;4.20;;
71238;SDS011;61342;51.442;7.370;2022-08-23T00:06:46;7.22;;;4.22;;
71238;SDS011;61342;51.442;7.370;2022-08-23T00:08:24;5.95;;;4.10;;
71238;SDS011;61342;51.442;7.370;2022-08-23T00:11:29;8.02;;;3.97;;
71238;SDS011;61342;51.442;7.370;2022-08-23T00:12:55;5.40;;;3.88;;
71238;SDS011;61342;51.442;7.370;2022-08-23T00:14:09;5.43;;;3.97;;
71238;SDS011;61342;51.442;7.370;2022-08-23T00:15:54;8.30;;;4.32;;
71238;SDS011;61342;51.442;7.370;2022-08-23T00:17:47;6.32;;;4.63;;
71238;SDS011;61342;51.442;7.370;2022-08-23T00:19:38;4.40;;;3.90;;
71238;SDS011;61342;51.442;7.370;2022-08-23T00:21:09;5.88;;;3.90;;
71238;SDS011;61342;51.442;7.370;2022-08-23T00:22:40;5.85;;;4.10;;
71238;SDS011;61342;51.442;7.370;2022-08-23T00:24:10;7.68;;;3.70;;
71238;SDS011;61342;51.442;7.370;2022-08-23T00:25:58;4.82;;;3.60;;
71238;SDS011;61342;51.442;7.370;2022-08-23T00:27:13;5.95;;;3.95;;
71238;SDS011;61342;51.442;7.370;2022-08-23T00:29:09;6.13;;;3.88;;
71238;SDS011;61342;51.442;7.370;2022-08-23T00:30:54;5.60;;;3.30;;
71238;SDS011;61342;51.442;7.370;2022-08-23T00:33:28;4.70;;;3.80;;
71238;SDS011;61342;51.442;7.370;2022-08-23T00:36:55;8.38;;;3.60;;
71238;SDS011;61342;51.442;7.370;2022-08-23T00:39:34;4.03;;;3.63;;
71238;SDS011;61342;51.442;7.370;2022-08-23T00:40:55;5.93;;;3.85;;
71238;SDS011;61342;51.442;7.370;2022-08-23T00:42:08;5.93;;;3.72;;
71238;SDS011;61342;51.442;7.370;2022-08-23T00:43:54;5.10;;;3.92;;
71238;SDS011;61342;51.442;7.370;2022-08-23T00:45:26;6.32;;;3.80;;
71238;SDS011;61342;51.442;7.370;2022-08-23T00:47:31;8.07;;;3.85;;
71238;SDS011;61342;51.442;7.370;2022-08-23T00:49:15;4.90;;;3.60;;
71238;SDS011;61342;51.442;7.370;2022-08-23T01:05:37;5.32;;;3.50;;
71238;SDS011;61342;51.442;7.370;2022-08-23T01:09:10;4.78;;;3.10;;
71238;SDS011;61342;51.442;7.370;2022-08-23T01:24:19;4.63;;;3.65;;
71238;SDS011;61342;51.442;7.370;2022-08-23T01:27:27;4.30;;;3.40;;
71238;SDS011;61342;51.442;7.370;2022-08-23T01:28:57;4.28;;;3.17;;
71238;SDS011;61342;51.442;7.370;2022-08-23T01:30:27;6.03;;;3.75;;
71238;SDS011;61342;51.442;7.370;2022-08-23T01:34:47;4.10;;;3.72;;
71238;SDS011;61342;51.442;7.370;2022-08-23T01:35:57;9.75;;;4.28;;
71238;SDS011;61342;51.442;7.370;2022-08-23T01:39:09;5.45;;;3.90;;
71238;SDS011;61342;51.442;7.370;2022-08-23T01:40:23;5.50;;;3.63;;
71238;SDS011;61342;51.442;7.370;2022-08-23T01:43:53;5.68;;;4.00;;
71238;SDS011;61342;51.442;7.370;2022-08-23T01:45:53;5.53;;;3.80;;
71238;SDS011;61342;51.442;7.370;2022-08-23T01:47:28;5.00;;;4.13;;
71238;SDS011;61342;51.442;7.370;2022-08-23T01:49:25;4.72;;;3.88;;
71238;SDS011;61342;51.442;7.370;2022-08-23T01:52:52;7.22;;;3.80;;
71238;SDS011;61342;51.442;7.370;2022-08-23T01:54:05;5.30;;;3.72;;
71238;SDS011;61342;51.442;7.370;2022-08-23T01:55:58;6.03;;;3.60;;
71238;SDS011;61342;51.442;7.370;2022-08-23T01:59:00;5.47;;;4.67;;
71238;SDS011;61342;51.442;7.370;2022-08-23T02:12:03;5.83;;;3.80;;
71238;SDS011;61342;51.442;7.370;2022-08-23T02:13:30;4.67;;;3.83;;
71238;SDS011;61342;51.442;7.370;2022-08-23T02:15:15;4.97;;;4.00;;
71238;SDS011;61342;51.442;7.370;2022-08-23T02:18:23;7.17;;;4.70;;
71238;SDS011;61342;51.442;7.370;2022-08-23T02:26:56;4.23;;;3.80;;
71238;SDS011;61342;51.442;7.370;2022-08-23T02:28:22;6.03;;;4.73;;
71238;SDS011;61342;51.442;7.370;2022-08-23T02:32:52;6.20;;;4.40;;
71238;SDS011;61342;51.442;7.370;2022-08-23T02:35:51;6.13;;;4.43;;
71238;SDS011;61342;51.442;7.370;2022-08-23T02:37:20;5.83;;;4.10;;
71238;SDS011;61342;51.442;7.370;2022-08-23T02:38:34;6.37;;;4.37;;
71238;SDS011;61342;51.442;7.370;2022-08-23T02:40:14;5.47;;;4.53;;
71238;SDS011;61342;51.442;7.370;2022-08-23T02:41:33;5.37;;;4.57;;
71238;SDS011;61342;51.442;7.370;2022-08-23T02:43:18;4.87;;;4.33;;
71238;SDS011;61342;51.442;7.370;2022-08-23T02:46:21;6.30;;;4.60;;
71238;SDS011;61342;51.442;7.370;2022-08-23T02:49:29;8.60;;;4.50;;
71238;SDS011;61342;51.442;7.370;2022-08-23T02:52:30;4.67;;;4.13;;
71238;SDS011;61342;51.442;7.370;2022-08-23T02:53:57;7.37;;;4.37;;
71238;SDS011;61342;51.442;7.370;2022-08-23T02:55:07;6.53;;;4.40;;
71238;SDS011;61342;51.442;7.370;2022-08-23T02:56:17;6.87;;;4.53;;
71238;SDS011;61342;51.442;7.370;2022-08-23T02:59:22;6.53;;;4.60;;
71238;SDS011;61342;51.442;7.370;2022-08-23T03:04:11;5.70;;;4.20;;
71238;SDS011;61342;51.442;7.370;2022-08-23T03:05:17;6.87;;;4.20;;
71238;SDS011;61342;51.442;7.370;2022-08-23T03:06:23;4.83;;;4.33;;
71238;SDS011;61342;51.442;7.370;2022-08-23T03:07:43;5.83;;;4.27;;
71238;SDS011;61342;51.442;7.370;2022-08-23T03:08:49;5.37;;;4.50;;
71238;SDS011;61342;51.442;7.370;2022-08-23T03:09:53;6.87;;;4.50;;
71238;SDS011;61342;51.442;7.370;2022-08-23T03:10:59;6.07;;;4.60;;
71238;SDS011;61342;51.442;7.370;2022-08-23T03:12:29;6.20;;;4.37;;
71238;SDS011;61342;51.442;7.370;2022-08-23T03:13:54;7.50;;;4.37;;
71238;SDS011;61342;51.442;7.370;2022-08-23T03:15:16;6.80;;;4.97;;
71238;SDS011;61342;51.442;7.370;2022-08-23T03:16:55;7.00;;;5.13;;
71238;SDS011;61342;51.442;7.370;2022-08-23T03:18:01;6.50;;;4.47;;
71238;SDS011;61342;51.442;7.370;2022-08-23T03:19:22;6.63;;;4.60;;
71238;SDS011;61342;51.442;7.370;2022-08-23T03:20:43;5.17;;;4.30;;
71238;SDS011;61342;51.442;7.370;2022-08-23T03:22:19;5.70;;;4.70;;
71238;SDS011;61342;51.442;7.370;2022-08-23T03:23:59;5.83;;;4.60;;
71238;SDS011;61342;51.442;7.370;2022-08-23T03:25:28;6.70;;;5.60;;
71238;SDS011;61342;51.442;7.370;2022-08-23T03:27:03;7.90;;;4.97;;
71238;SDS011;61342;51.442;7.370;2022-08-23T03:28:27;6.73;;;4.97;;
71238;SDS011;61342;51.442;7.370;2022-08-23T03:29:32;8.53;;;5.10;;
71238;SDS011;61342;51.442;7.370;2022-08-23T03:30:54;5.60;;;5.03;;
71238;SDS011;61342;51.442;7.370;2022-08-23T03:32:07;6.10;;;5.10;;
71238;SDS011;61342;51.442;7.370;2022-08-23T03:33:24;5.10;;;4.50;;
71238;SDS011;61342;51.442;7.370;2022-08-23T03:34:55;7.93;;;5.10;;
71238;SDS011;61342;51.442;7.370;2022-08-23T03:36:22;7.77;;;4.90;;
71238;SDS011;61342;51.442;7.370;2022-08-23T03:37:49;5.33;;;4.73;;
71238;SDS011;61342;51.442;7.370;2022-08-23T03:40:28;10.33;;;5.10;;
71238;SDS011;61342;51.442;7.370;2022-08-23T03:42:24;6.37;;;5.00;;
71238;SDS011;61342;51.442;7.370;2022-08-23T03:45:42;6.80;;;5.13;;
71238;SDS011;61342;51.442;7.370;2022-08-23T03:47:16;8.90;;;5.43;;
71238;SDS011;61342;51.442;7.370;2022-08-23T03:50:27;8.87;;;5.03;;
71238;SDS011;61342;51.442;7.370;2022-08-23T03:53:20;6.53;;;5.47;;
71238;SDS011;61342;51.442;7.370;2022-08-23T03:54:57;6.73;;;5.07;;
71238;SDS011;61342;51.442;7.370;2022-08-23T03:56:31;8.53;;;5.77;;
71238;SDS011;61342;51.442;7.370;2022-08-23T03:58:14;11.40;;;5.60;;
71238;SDS011;61342;51.442;7.370;2022-08-23T03:59:31;6.07;;;5.13;;
71238;SDS011;61342;51.442;7.370;2022-08-23T04:01:07;7.87;;;5.47;;
71238;SDS011;61342;51.442;7.370;2022-08-23T04:02:10;9.60;;;5.90;;
71238;SDS011;61342;51.442;7.370;2022-08-23T04:03:12;8.90;;;6.00;;
71238;SDS011;61342;51.442;7.370;2022-08-23T04:04:19;6.17;;;5.40;;
71238;SDS011;61342;51.442;7.370;2022-08-23T04:05:45;6.87;;;5.40;;
71238;SDS011;61342;51.442;7.370;2022-08-23T04:07:26;9.83;;;5.20;;
71238;SDS011;61342;51.442;7.370;2022-08-23T04:08:37;8.13;;;5.37;;
71238;SDS011;61342;51.442;7.370;2022-08-23T04:10:16;7.60;;;5.20;;
71238;SDS011;61342;51.442;7.370;2022-08-23T04:11:29;10.67;;;6.13;;
71238;SDS011;61342;51.442;7.370;2022-08-23T04:13:08;7.53;;;5.53;;
71238;SDS011;61342;51.442;7.370;2022-08-23T04:14:47;5.83;;;5.23;;
71238;SDS011;61342;51.442;7.370;2022-08-23T04:15:56;8.47;;;5.63;;
71238;SDS011;61342;51.442;7.370;2022-08-23T04:17:11;6.67;;;5.33;;
71238;SDS011;61342;51.442;7.370;2022-08-23T04:18:25;6.83;;;5.53;;
71238;SDS011;61342;51.442;7.370;2022-08-23T04:21:02;7.43;;;5.77;;
71238;SDS011;61342;51.442;7.370;2022-08-23T04:22:11;8.23;;;5.37;;
71238;SDS011;61342;51.442;7.370;2022-08-23T04:24:58;6.37;;;5.47;;
71238;SDS011;61342;51.442;7.370;2022-08-23T04:26:30;6.77;;;5.37;;
71238;SDS011;61342;51.442;7.370;2022-08-23T04:29:19;6.40;;;4.90;;
71238;SDS011;61342;51.442;7.370;2022-08-23T04:32:14;7.43;;;5.40;;
71238;SDS011;61342;51.442;7.370;2022-08-23T04:33:26;8.47;;;5.10;;
71238;SDS011;61342;51.442;7.370;2022-08-23T04:34:47;7.30;;;5.63;;
71238;SDS011;61342;51.442;7.370;2022-08-23T04:36:18;7.53;;;5.07;;
71238;SDS011;61342;51.442;7.370;2022-08-23T04:37:22;5.33;;;4.83;;
71238;SDS011;61342;51.442;7.370;2022-08-23T04:38:27;5.53;;;4.80;;
71238;SDS011;61342;51.442;7.370;2022-08-23T04:39:49;7.90;;;5.00;;
71238;SDS011;61342;51.442;7.370;2022-08-23T04:41:16;8.53;;;5.07;;
71238;SDS011;61342;51.442;7.370;2022-08-23T04:42:53;5.90;;;4.80;;
71238;SDS011;61342;51.442;7.370;2022-08-23T04:44:23;6.40;;;5.43;;
71238;SDS011;61342;51.442;7.370;2022-08-23T04:45:38;7.07;;;5.30;;
71238;SDS011;61342;51.442;7.370;2022-08-23T04:47:22;6.50;;;5.10;;
71238;SDS011;61342;51.442;7.370;2022-08-23T04:48:48;7.90;;;5.30;;
71238;SDS011;61342;51.442;7.370;2022-08-23T04:50:10;8.70;;;5.20;;
71238;SDS011;61342;51.442;7.370;2022-08-23T04:51:30;6.20;;;5.53;;
71238;SDS011;61342;51.442;7.370;2022-08-23T04:54:39;6.73;;;5.23;;
71238;SDS011;61342;51.442;7.370;2022-08-23T04:59:14;6.77;;;5.30;;
71238;SDS011;61342;51.442;7.370;2022-08-23T05:01:48;9.90;;;5.30;;
71238;SDS011;61342;51.442;7.370;2022-08-23T05:02:52;8.23;;;5.47;;
71238;SDS011;61342;51.442;7.370;2022-08-23T05:04:21;9.23;;;5.73;;
71238;SDS011;61342;51.442;7.370;2022-08-23T05:05:47;8.07;;;5.60;;
71238;SDS011;61342;51.442;7.370;2022-08-23T05:07:27;5.77;;;5.13;;
71238;SDS011;61342;51.442;7.370;2022-08-23T05:08:39;7.80;;;4.77;;
71238;SDS011;61342;51.442;7.370;2022-08-23T05:09:40;9.40;;;5.17;;
71238;SDS011;61342;51.442;7.370;2022-08-23T05:10:49;7.97;;;5.83;;
71238;SDS011;61342;51.442;7.370;2022-08-23T05:12:01;9.47;;;6.07;;
71238;SDS011;61342;51.442;7.370;2022-08-23T05:22:17;8.87;;;6.03;;
71238;SDS011;61342;51.442;7.370;2022-08-23T05:24:03;8.37;;;5.80;;
71238;SDS011;61342;51.442;7.370;2022-08-23T05:25:27;8.50;;;5.00;;
71238;SDS011;61342;51.442;7.370;2022-08-23T05:30:03;8.73;;;5.07;;
71238;SDS011;61342;51.442;7.370;2022-08-23T05:31:58;5.20;;;4.60;;
71238;SDS011;61342;51.442;7.370;2022-08-23T05:33:28;9.17;;;5.50;;
71238;SDS011;61342;51.442;7.370;2022-08-23T05:35:28;8.07;;;5.40;;
71238;SDS011;61342;51.442;7.370;2022-08-23T05:54:55;6.93;;;5.03;;
71238;SDS011;61342;51.442;7.370;2022-08-23T06:00:09;11.43;;;5.63;;
71238;SDS011;61342;51.442;7.370;2022-08-23T06:01:14;8.23;;;5.20;;
71238;SDS011;61342;51.442;7.370;2022-08-23T06:02:28;9.70;;;5.17;;
71238;SDS011;61342;51.442;7.370;2022-08-23T06:03:28;9.10;;;5.10;;
71238;SDS011;61342;51.442;7.370;2022-08-23T06:04:29;6.00;;;4.90;;
71238;SDS011;61342;51.442;7.370;2022-08-23T06:05:29;8.53;;;5.37;;
71238;SDS011;61342;51.442;7.370;2022-08-23T06:06:30;5.57;;;4.87;;
71238;SDS011;61342;51.442;7.370;2022-08-23T06:07:34;6.93;;;5.03;;
71238;SDS011;61342;51.442;7.370;2022-08-23T06:08:36;7.63;;;5.10;;
71238;SDS011;61342;51.442;7.370;2022-08-23T06:09:39;8.50;;;4.87;;
71238;SDS011;61342;51.442;7.370;2022-08-23T06:10:39;7.63;;;5.00;;
71238;SDS011;61342;51.442;7.370;2022-08-23T06:11:41;6.07;;;5.10;;
71238;SDS011;61342;51.442;7.370;2022-08-23T06:13:25;8.03;;;5.43;;
71238;SDS011;61342;51.442;7.370;2022-08-23T06:15:06;6.03;;;4.53;;
71238;SDS011;61342;51.442;7.370;2022-08-23T06:20:25;9.87;;;5.43;;
71238;SDS011;61342;51.442;7.370;2022-08-23T06:21:31;8.37;;;4.47;;
71238;SDS011;61342;51.442;7.370;2022-08-23T06:22:34;7.60;;;4.10;;
71238;SDS011;61342;51.442;7.370;2022-08-23T06:23:35;9.57;;;4.40;;
71238;SDS011;61342;51.442;7.370;2022-08-23T06:24:39;6.70;;;4.00;;
71238;SDS011;61342;51.442;7.370;2022-08-23T06:31:13;7.13;;;3.20;;
71238;SDS011;61342;51.442;7.370;2022-08-23T06:35:19;4.10;;;3.10;;
71238;SDS011;61342;51.442;7.370;2022-08-23T06:51:45;4.40;;;2.40;;
71238;SDS011;61342;51.442;7.370;2022-08-23T06:55:45;5.63;;;2.90;;
71238;SDS011;61342;51.442;7.370;2022-08-23T06:56:46;4.93;;;2.70;;
71238;SDS011;61342;51.442;7.370;2022-08-23T07:05:31;3.67;;;2.47;;
71238;SDS011;61342;51.442;7.370;2022-08-23T07:06:31;5.00;;;2.47;;
71238;SDS011;61342;51.442;7.370;2022-08-23T07:07:33;5.33;;;2.73;;
71238;SDS011;61342;51.442;7.370;2022-08-23T07:08:33;4.68;;;3.33;;
71238;SDS011;61342;51.442;7.370;2022-08-23T07:09:34;4.87;;;2.80;;
71238;SDS011;61342;51.442;7.370;2022-08-23T07:10:35;4.85;;;2.65;;
71238;SDS011;61342;51.442;7.370;2022-08-23T07:11:41;5.40;;;2.80;;
71238;SDS011;61342;51.442;7.370;2022-08-23T07:12:42;4.80;;;2.67;;
71238;SDS011;61342;51.442;7.370;2022-08-23T07:13:50;5.07;;;2.75;;
71238;SDS011;61342;51.442;7.370;2022-08-23T07:14:54;3.83;;;2.78;;
71238;SDS011;61342;51.442;7.370;2022-08-23T07:15:56;5.93;;;3.00;;
71238;SDS011;61342;51.442;7.370;2022-08-23T07:16:58;4.82;;;2.80;;
71238;SDS011;61342;51.442;7.370;2022-08-23T07:19:33;4.13;;;2.60;;
71238;SDS011;61342;51.442;7.370;2022-08-23T07:22:57;4.55;;;2.22;;
71238;SDS011;61342;51.442;7.370;2022-08-23T07:24:24;7.50;;;2.63;;
71238;SDS011;61342;51.442;7.370;2022-08-23T07:25:38;6.38;;;3.05;;
71238;SDS011;61342;51.442;7.370;2022-08-23T07:53:31;6.82;;;2.70;;
71238;SDS011;61342;51.442;7.370;2022-08-23T07:59:54;5.30;;;2.80;;
71238;SDS011;61342;51.442;7.370;2022-08-23T08:00:54;4.40;;;2.50;;
71238;SDS011;61342;51.442;7.370;2022-08-23T08:02:58;6.00;;;2.50;;
71238;SDS011;61342;51.442;7.370;2022-08-23T08:04:25;4.57;;;2.80;;
71238;SDS011;61342;51.442;7.370;2022-08-23T08:11:39;5.07;;;2.50;;
71238;SDS011;61342;51.442;7.370;2022-08-23T08:14:38;4.78;;;2.45;;
71238;SDS011;61342;51.442;7.370;2022-08-23T08:15:41;2.88;;;2.45;;
71238;SDS011;61342;51.442;7.370;2022-08-23T08:16:51;5.05;;;2.90;;
71238;SDS011;61342;51.442;7.370;2022-08-23T08:17:57;6.63;;;2.88;;
71238;SDS011;61342;51.442;7.370;2022-08-23T08:21:36;5.07;;;2.53;;
71238;SDS011;61342;51.442;7.370;2022-08-23T08:23:01;4.60;;;2.80;;
71238;SDS011;61342;51.442;7.370;2022-08-23T08:24:08;5.25;;;2.78;;
71238;SDS011;61342;51.442;7.370;2022-08-23T08:25:44;6.50;;;2.60;;
71238;SDS011;61342;51.442;7.370;2022-08-23T08:27:14;4.18;;;2.83;;
71238;SDS011;61342;51.442;7.370;2022-08-23T08:28:21;4.68;;;2.80;;
71238;SDS011;61342;51.442;7.370;2022-08-23T08:29:39;4.85;;;2.50;;
71238;SDS011;61342;51.442;7.370;2022-08-23T08:30:48;2.88;;;2.55;;
71238;SDS011;61342;51.442;7.370;2022-08-23T08:33:58;4.10;;;2.55;;
71238;SDS011;61342;51.442;7.370;2022-08-23T08:35:08;5.25;;;3.10;;
71238;SDS011;61342;51.442;7.370;2022-08-23T08:36:23;7.75;;;3.13;;
71238;SDS011;61342;51.442;7.370;2022-08-23T08:37:28;9.88;;;2.88;;
71238;SDS011;61342;51.442;7.370;2022-08-23T08:38:29;4.82;;;2.75;;
71238;SDS011;61342;51.442;7.370;2022-08-23T08:39:46;3.35;;;2.75;;
71238;SDS011;61342;51.442;7.370;2022-08-23T08:40:54;4.78;;;2.45;;
71238;SDS011;61342;51.442;7.370;2022-08-23T08:43:46;5.38;;;2.80;;
71238;SDS011;61342;51.442;7.370;2022-08-23T08:46:50;4.68;;;2.60;;
71238;SDS011;61342;51.442;7.370;2022-08-23T08:48:02;11.55;;;2.80;;
71238;SDS011;61342;51.442;7.370;2022-08-23T08:49:06;3.30;;;2.60;;
71238;SDS011;61342;51.442;7.370;2022-08-23T08:52:44;5.68;;;2.78;;
71238;SDS011;61342;51.442;7.370;2022-08-23T08:53:50;4.47;;;2.35;;
71238;SDS011;61342;51.442;7.370;2022-08-23T08:54:55;4.82;;;2.60;;
71238;SDS011;61342;51.442;7.370;2022-08-23T08:57:27;4.95;;;2.60;;
71238;SDS011;61342;51.442;7.370;2022-08-23T09:00:02;6.88;;;2.80;;
71238;SDS011;61342;51.442;7.370;2022-08-23T09:01:14;8.23;;;3.08;;
71238;SDS011;61342;51.442;7.370;2022-08-23T09:02:16;6.15;;;2.53;;
71238;SDS011;61342;51.442;7.370;2022-08-23T09:03:19;4.50;;;2.72;;
71238;SDS011;61342;51.442;7.370;2022-08-23T09:04:24;4.47;;;2.70;;
71238;SDS011;61342;51.442;7.370;2022-08-23T09:05:26;5.40;;;3.05;;
71238;SDS011;61342;51.442;7.370;2022-08-23T09:16:36;3.88;;;2.75;;
71238;SDS011;61342;51.442;7.370;2022-08-23T09:18:12;9.45;;;3.58;;
71238;SDS011;61342;51.442;7.370;2022-08-23T09:19:15;5.65;;;2.88;;
71238;SDS011;61342;51.442;7.370;2022-08-23T09:20:17;3.85;;;2.97;;
71238;SDS011;61342;51.442;7.370;2022-08-23T09:21:20;6.07;;;2.97;;
71238;SDS011;61342;51.442;7.370;2022-08-23T09:22:29;10.40;;;3.35;;
71238;SDS011;61342;51.442;7.370;2022-08-23T09:23:37;4.22;;;2.88;;
71238;SDS011;61342;51.442;7.370;2022-08-23T09:24:41;8.80;;;2.58;;
71238;SDS011;61342;51.442;7.370;2022-08-23T09:25:54;5.00;;;2.80;;
71238;SDS011;61342;51.442;7.370;2022-08-23T09:26:59;5.40;;;3.22;;
71238;SDS011;61342;51.442;7.370;2022-08-23T09:27:59;7.57;;;2.72;;
71238;SDS011;61342;51.442;7.370;2022-08-23T09:30:14;3.50;;;2.50;;
71238;SDS011;61342;51.442;7.370;2022-08-23T09:31:39;4.53;;;2.70;;
71238;SDS011;61342;51.442;7.370;2022-08-23T09:32:44;5.97;;;2.45;;
71238;SDS011;61342;51.442;7.370;2022-08-23T09:33:49;5.40;;;2.78;;
71238;SDS011;61342;51.442;7.370;2022-08-23T09:34:52;6.70;;;2.47;;
71238;SDS011;61342;51.442;7.370;2022-08-23T10:05:41;3.85;;;2.78;;
71238;SDS011;61342;51.442;7.370;2022-08-23T10:13:30;7.32;;;2.95;;
71238;SDS011;61342;51.442;7.370;2022-08-23T10:14:33;7.80;;;2.92;;
71238;SDS011;61342;51.442;7.370;2022-08-23T10:15:44;6.45;;;2.85;;
71238;SDS011;61342;51.442;7.370;2022-08-23T10:19:37;4.00;;;2.85;;
71238;SDS011;61342;51.442;7.370;2022-08-23T10:20:46;5.35;;;2.53;;
71238;SDS011;61342;51.442;7.370;2022-08-23T10:23:15;5.70;;;3.25;;
71238;SDS011;61342;51.442;7.370;2022-08-23T10:24:28;5.22;;;2.65;;
71238;SDS011;61342;51.442;7.370;2022-08-23T10:25:42;4.13;;;2.72;;
71238;SDS011;61342;51.442;7.370;2022-08-23T10:32:06;5.88;;;2.90;;
71238;SDS011;61342;51.442;7.370;2022-08-23T10:36:33;5.40;;;2.67;;
71238;SDS011;61342;51.442;7.370;2022-08-23T10:39:26;4.72;;;2.70;;
71238;SDS011;61342;51.442;7.370;2022-08-23T10:40:30;5.80;;;2.70;;
71238;SDS011;61342;51.442;7.370;2022-08-23T10:44:42;5.70;;;3.03;;
71238;SDS011;61342;51.442;7.370;2022-08-23T10:45:52;5.35;;;2.97;;
71238;SDS011;61342;51.442;7.370;2022-08-23T10:49:27;5.65;;;2.60;;
71238;SDS011;61342;51.442;7.370;2022-08-23T10:50:30;4.85;;;2.88;;
71238;SDS011;61342;51.442;7.370;2022-08-23T10:51:40;4.63;;;2.70;;
71238;SDS011;61342;51.442;7.370;2022-08-23T10:52:54;3.70;;;2.83;;
71238;SDS011;61342;51.442;7.370;2022-08-23T10:54:04;6.32;;;2.58;;
71238;SDS011;61342;51.442;7.370;2022-08-23T10:55:21;7.15;;;2.90;;
71238;SDS011;61342;51.442;7.370;2022-08-23T10:56:53;3.03;;;2.72;;
71238;SDS011;61342;51.442;7.370;2022-08-23T11:39:23;7.10;;;3.30;;
71238;SDS011;61342;51.442;7.370;2022-08-23T11:42:42;8.10;;;3.20;;
71238;SDS011;61342;51.442;7.370;2022-08-23T11:44:15;5.47;;;2.83;;
71238;SDS011;61342;51.442;7.370;2022-08-23T11:46:59;7.43;;;2.95;;
71238;SDS011;61342;51.442;7.370;2022-08-23T11:55:31;7.50;;;3.00;;
71238;SDS011;61342;51.442;7.370;2022-08-23T12:00:23;5.10;;;3.50;;
71238;SDS011;61342;51.442;7.370;2022-08-23T12:13:29;7.13;;;2.88;;
71238;SDS011;61342;51.442;7.370;2022-08-23T12:27:05;3.72;;;2.58;;
71238;SDS011;61342;51.442;7.370;2022-08-23T12:44:41;5.85;;;2.72;;
71238;SDS011;61342;51.442;7.370;2022-08-23T13:07:03;4.85;;;2.80;;
71238;SDS011;61342;51.442;7.370;2022-08-23T13:12:52;4.63;;;2.60;;
71238;SDS011;61342;51.442;7.370;2022-08-23T13:15:03;5.28;;;2.72;;
71238;SDS011;61342;51.442;7.370;2022-08-23T13:22:34;8.68;;;2.80;;
71238;SDS011;61342;51.442;7.370;2022-08-23T13:31:24;5.50;;;2.67;;
71238;SDS011;61342;51.442;7.370;2022-08-23T13:40:14;7.28;;;2.72;;
71238;SDS011;61342;51.442;7.370;2022-08-23T13:43:31;5.05;;;2.83;;
71238;SDS011;61342;51.442;7.370;2022-08-23T13:47:18;4.60;;;3.00;;
71238;SDS011;61342;51.442;7.370;2022-08-23T13:52:54;4.63;;;3.13;;
71238;SDS011;61342;51.442;7.370;2022-08-23T14:10:10;5.00;;;2.55;;
71238;SDS011;61342;51.442;7.370;2022-08-23T14:11:16;5.07;;;2.60;;
71238;SDS011;61342;51.442;7.370;2022-08-23T14:12:33;3.90;;;2.50;;
71238;SDS011;61342;51.442;7.370;2022-08-23T14:28:06;2.88;;;2.15;;
71238;SDS011;61342;51.442;7.370;2022-08-23T14:30:51;3.33;;;2.28;;
71238;SDS011;61342;51.442;7.370;2022-08-23T14:31:55;2.88;;;2.17;;
71238;SDS011;61342;51.442;7.370;2022-08-23T14:34:10;4.75;;;2.40;;
71238;SDS011;61342;51.442;7.370;2022-08-23T14:35:10;3.85;;;2.35;;
71238;SDS011;61342;51.442;7.370;2022-08-23T14:55:50;4.68;;;2.40;;
71238;SDS011;61342;51.442;7.370;2022-08-23T14:57:33;4.13;;;2.15;;
71238;SDS011;61342;51.442;7.370;2022-08-23T14:59:23;5.60;;;2.85;;
71238;SDS011;61342;51.442;7.370;2022-08-23T15:00:51;4.45;;;2.55;;
71238;SDS011;61342;51.442;7.370;2022-08-23T15:04:05;3.72;;;2.50;;
71238;SDS011;61342;51.442;7.370;2022-08-23T15:05:30;3.85;;;2.70;;
71238;SDS011;61342;51.442;7.370;2022-08-23T15:08:10;4.38;;;2.38;;
71238;SDS011;61342;51.442;7.370;2022-08-23T15:09:19;4.07;;;2.20;;
71238;SDS011;61342;51.442;7.370;2022-08-23T15:10:29;4.45;;;2.67;;
71238;SDS011;61342;51.442;7.370;2022-08-23T15:11:34;7.18;;;2.67;;
71238;SDS011;61342;51.442;7.370;2022-08-23T15:12:35;5.70;;;2.70;;
71238;SDS011;61342;51.442;7.370;2022-08-23T15:13:45;4.95;;;2.80;;
71238;SDS011;61342;51.442;7.370;2022-08-23T15:14:57;7.05;;;2.90;;
71238;SDS011;61342;51.442;7.370;2022-08-23T15:16:09;4.70;;;2.70;;
71238;SDS011;61342;51.442;7.370;2022-08-23T15:17:23;7.35;;;2.88;;
71238;SDS011;61342;51.442;7.370;2022-08-23T15:19:44;3.78;;;2.45;;
71238;SDS011;61342;51.442;7.370;2022-08-23T15:20:48;5.85;;;2.60;;
71238;SDS011;61342;51.442;7.370;2022-08-23T15:21:48;5.93;;;3.05;;
71238;SDS011;61342;51.442;7.370;2022-08-23T15:22:49;6.05;;;2.88;;
71238;SDS011;61342;51.442;7.370;2022-08-23T15:23:50;6.57;;;3.08;;
71238;SDS011;61342;51.442;7.370;2022-08-23T15:24:50;7.38;;;2.92;;
71238;SDS011;61342;51.442;7.370;2022-08-23T15:25:51;5.20;;;2.90;;
71238;SDS011;61342;51.442;7.370;2022-08-23T15:27:00;7.45;;;3.00;;
71238;SDS011;61342;51.442;7.370;2022-08-23T15:28:08;3.55;;;2.35;;
71238;SDS011;61342;51.442;7.370;2022-08-23T15:29:13;4.60;;;2.70;;
71238;SDS011;61342;51.442;7.370;2022-08-23T15:30:20;6.30;;;2.90;;
71238;SDS011;61342;51.442;7.370;2022-08-23T15:33:36;6.10;;;2.90;;
71238;SDS011;61342;51.442;7.370;2022-08-23T15:35:23;4.47;;;2.95;;
71238;SDS011;61342;51.442;7.370;2022-08-23T15:36:42;4.80;;;2.75;;
71238;SDS011;61342;51.442;7.370;2022-08-23T15:37:54;4.97;;;2.60;;
71238;SDS011;61342;51.442;7.370;2022-08-23T15:38:56;5.07;;;2.53;;
71238;SDS011;61342;51.442;7.370;2022-08-23T15:39:56;4.35;;;2.70;;
71238;SDS011;61342;51.442;7.370;2022-08-23T15:40:57;3.97;;;2.55;;
71238;SDS011;61342;51.442;7.370;2022-08-23T15:41:57;5.70;;;2.60;;
71238;SDS011;61342;51.442;7.370;2022-08-23T15:42:58;6.32;;;2.88;;
71238;SDS011;61342;51.442;7.370;2022-08-23T15:43:58;4.80;;;2.40;;
71238;SDS011;61342;51.442;7.370;2022-08-23T15:44:59;6.38;;;2.90;;
71238;SDS011;61342;51.442;7.370;2022-08-23T15:46:02;4.38;;;2.60;;
71238;SDS011;61342;51.442;7.370;2022-08-23T15:47:04;6.70;;;2.83;;
71238;SDS011;61342;51.442;7.370;2022-08-23T15:48:28;7.70;;;2.53;;
71238;SDS011;61342;51.442;7.370;2022-08-23T15:49:32;4.25;;;2.30;;
71238;SDS011;61342;51.442;7.370;2022-08-23T15:50:33;6.22;;;2.72;;
71238;SDS011;61342;51.442;7.370;2022-08-23T15:51:34;4.38;;;2.70;;
71238;SDS011;61342;51.442;7.370;2022-08-23T15:52:34;6.45;;;2.28;;
71238;SDS011;61342;51.442;7.370;2022-08-23T15:53:37;5.25;;;2.30;;
71238;SDS011;61342;51.442;7.370;2022-08-23T15:54:39;5.90;;;2.75;;
71238;SDS011;61342;51.442;7.370;2022-08-23T15:55:40;5.95;;;2.95;;
71238;SDS011;61342;51.442;7.370;2022-08-23T15:56:43;6.13;;;2.70;;
71238;SDS011;61342;51.442;7.370;2022-08-23T15:57:47;6.32;;;2.92;;
71238;SDS011;61342;51.442;7.370;2022-08-23T15:58:51;3.63;;;2.70;;
71238;SDS011;61342;51.442;7.370;2022-08-23T15:59:54;4.07;;;2.40;;
71238;SDS011;61342;51.442;7.370;2022-08-23T16:00:56;4.30;;;2.58;;
71238;SDS011;61342;51.442;7.370;2022-08-23T16:01:56;7.07;;;3.00;;
71238;SDS011;61342;51.442;7.370;2022-08-23T16:02:56;5.78;;;2.70;;
71238;SDS011;61342;51.442;7.370;2022-08-23T16:03:57;5.35;;;2.97;;
71238;SDS011;61342;51.442;7.370;2022-08-23T16:04:59;8.48;;;5.18;;
71238;SDS011;61342;51.442;7.370;2022-08-23T16:06:05;6.00;;;3.40;;
71238;SDS011;61342;51.442;7.370;2022-08-23T16:07:07;5.05;;;2.88;;
71238;SDS011;61342;51.442;7.370;2022-08-23T16:08:11;5.50;;;2.63;;
71238;SDS011;61342;51.442;7.370;2022-08-23T16:09:20;4.72;;;2.80;;
71238;SDS011;61342;51.442;7.370;2022-08-23T16:10:47;6.90;;;2.60;;
71238;SDS011;61342;51.442;7.370;2022-08-23T16:11:50;4.53;;;2.42;;
71238;SDS011;61342;51.442;7.370;2022-08-23T16:13:01;6.18;;;2.65;;
71238;SDS011;61342;51.442;7.370;2022-08-23T16:14:05;5.95;;;2.92;;